Cape Magnolia — 3FGP2 — position and weather

sailwx.info

Track history (hours):
 
Tides and Currents Weather Stations Pressure Air Temp Water Temp Dewpoint Dewpoint Depression Visibility Wind Speed Wind Dir Waves Ship Positions

Cape Magnolia

Last reported at 2014-Aug-26 12:21 UTC. Time now 2014-Aug-31 06:32 UTC.
Position N 33°45' W 024°13'.

Length 292 m; draft 10.4 m.

Type: Ship. MMSI: 357427000.

Date/timePositionNaut miles runAvg speedWind from/ knotsBaromVisibWave heightAir tempDewpointWater temp
2014-Aug-26 12:21N 33°45' W 024°13'911.0
2014-Aug-26 11:32N 33°46' W 024°02'4013.4
2014-Aug-26 08:30N 33°57' W 023°15'  
2014-Aug-23 22:07N 35°42' W 009°57'610.5
2014-Aug-23 21:33N 35°43' W 009°49'1110.8
2014-Aug-23 20:33N 35°43' W 009°36'1210.8
2014-Aug-23 19:28N 35°44' W 009°22'19410.2
2014-Aug-23 00:22N 36°04' W 005°23'4 0.9
2014-Aug-22 20:04N 36°08' W 005°23'0 0.2
2014-Aug-22 19:22N 36°08' W 005°23'0 0.2
2014-Aug-22 18:28N 36°08' W 005°23'0 0.1
2014-Aug-22 17:31N 36°08' W 005°23'0 0.0
2014-Aug-22 16:28N 36°08' W 005°23'0 0.1
2014-Aug-22 15:31N 36°08' W 005°23'0 0.0
2014-Aug-22 14:31N 36°08' W 005°23'0 0.0
2014-Aug-22 12:25N 36°08' W 005°23'0 0.2
2014-Aug-22 11:22N 36°08' W 005°23'0 0.0
2014-Aug-21 21:22N 36°08' W 005°23'1 1.4
2014-Aug-21 20:33N 36°07' W 005°23'6 5.2
2014-Aug-21 19:19N 36°07' W 005°15'5 1.5
2014-Aug-21 16:13N 36°07' W 005°09'17210.8
2014-Aug-21 00:22N 36°42' W 001°40'911.2
2014-Aug-20 23:33N 36°47' W 001°30'1111.2
2014-Aug-20 22:33N 36°53' W 001°19'1111.3
2014-Aug-20 21:32N 37°01' W 001°08'1111.2
2014-Aug-20 20:32N 37°08' W 000°57'1010.1
2014-Aug-20 19:33N 37°12' W 000°46'1110.9
2014-Aug-20 18:33N 37°19' W 000°35'1110.8
2014-Aug-20 17:33N 37°25' W 000°24'1110.6
2014-Aug-20 16:33N 37°32' W 000°14'1110.8
2014-Aug-20 15:33N 37°41' W 000°07'1311.0
2014-Aug-20 14:20N 37°53' E 000°01'1011.2
2014-Aug-20 13:24N 38°02' E 000°07'1011.3
2014-Aug-20 12:31N 38°11' E 000°14'3311.0
2014-Aug-20 09:32N 38°39' E 000°35'3913.1
2014-Aug-20 06:33N 39°12' E 001°01'1111.2
2014-Aug-20 05:33N 39°21' E 001°10'1110.6
2014-Aug-20 04:33N 39°30' E 001°18'1110.9
2014-Aug-20 03:33N 39°38' E 001°27'1110.9
2014-Aug-20 02:33N 39°47' E 001°36'1110.8
2014-Aug-20 01:33N 39°56' E 001°44'1110.8
2014-Aug-20 00:33N 40°04' E 001°52'1111.1
2014-Aug-19 23:33N 40°14' E 001°59'1110.6
2014-Aug-19 22:33N 40°24' E 002°05'1010.0
2014-Aug-19 21:33N 40°30' E 002°16'1111.0
2014-Aug-19 20:33N 40°37' E 002°26'1010.3
2014-Aug-19 19:33N 40°46' E 002°33'1110.7
2014-Aug-19 18:33N 40°54' E 002°42'1110.8
2014-Aug-19 17:33N 41°03' E 002°50'1111.1
2014-Aug-19 16:33N 41°13' E 002°59'1212.2
2014-Aug-19 15:33N 41°22' E 003°09'1212.0
2014-Aug-19 14:34N 41°31' E 003°19'1211.6
2014-Aug-19 13:33N 41°41' E 003°28'1212.1
2014-Aug-19 12:33N 41°50' E 003°38'1212.4
2014-Aug-19 11:33N 42°00' E 003°47'1211.4
2014-Aug-19 10:32N 42°09' E 003°57'1212.2
2014-Aug-19 09:33N 42°19' E 004°07'1211.8
2014-Aug-19 08:32N 42°28' E 004°17'1312.7
2014-Aug-19 07:33N 42°39' E 004°26'1411.5
2014-Aug-19 06:22N 42°49' E 004°38'1111.7
2014-Aug-19 05:24N 42°58' E 004°47'1011.3
2014-Aug-19 04:33N 43°06' E 004°55'1010.3
2014-Aug-19 03:34N 43°16' E 004°60'9 9.3
2014-Aug-19 02:33N 43°24' E 004°54'2 1.7
2014-Aug-19 01:31N 43°26' E 004°53'0 0.0
2014-Aug-19 00:31N 43°26' E 004°53'0 0.0
2014-Aug-18 23:32N 43°26' E 004°53'0 0.0
2014-Aug-18 22:31N 43°26' E 004°53'0 0.0
2014-Aug-18 21:31N 43°26' E 004°53'0 0.0
2014-Aug-18 20:31N 43°26' E 004°53'0 0.0
2014-Aug-18 19:32N 43°26' E 004°53'0 0.0
2014-Aug-18 18:32N 43°26' E 004°53'0 0.0
2014-Aug-18 17:29N 43°26' E 004°53'0 0.0
2014-Aug-18 16:31N 43°26' E 004°53'0 0.0
2014-Aug-18 15:32N 43°26' E 004°53'0 0.0
2014-Aug-18 14:32N 43°26' E 004°53'0 0.0
2014-Aug-18 13:31N 43°26' E 004°53'0 0.0
2014-Aug-18 12:31N 43°26' E 004°53'0 0.0
2014-Aug-18 11:32N 43°26' E 004°53'0 0.0
2014-Aug-18 10:31N 43°26' E 004°53'0 0.0
2014-Aug-18 09:32N 43°26' E 004°53'0 0.0
2014-Aug-18 08:31N 43°26' E 004°53'0 0.0
2014-Aug-18 07:31N 43°26' E 004°53'0 0.0
2014-Aug-18 06:31N 43°26' E 004°53'0 0.0
2014-Aug-18 05:31N 43°26' E 004°53'0 0.0
2014-Aug-18 04:32N 43°26' E 004°53'0 0.0
2014-Aug-18 03:32N 43°26' E 004°53'0 0.0
2014-Aug-18 02:32N 43°26' E 004°53'0 0.0
2014-Aug-18 01:32N 43°26' E 004°53'0 0.0
2014-Aug-18 00:32N 43°26' E 004°53'0 0.0
2014-Aug-17 18:32N 43°26' E 004°53'0 0.0
2014-Aug-17 17:32N 43°26' E 004°53'0 0.0
2014-Aug-17 16:31N 43°26' E 004°53'0 0.0
2014-Aug-17 15:32N 43°26' E 004°53'0 0.0
2014-Aug-17 14:32N 43°26' E 004°53'0 0.0
2014-Aug-17 13:31N 43°26' E 004°53'0 0.0
2014-Aug-17 12:32N 43°26' E 004°53'0 0.0
2014-Aug-17 11:31N 43°26' E 004°53'0 0.0
2014-Aug-17 10:31N 43°26' E 004°53'0 0.0
2014-Aug-17 09:32N 43°26' E 004°53'0 0.0
2014-Aug-17 08:31N 43°26' E 004°53'0 0.0
2014-Aug-17 07:32N 43°26' E 004°53'0 0.0
2014-Aug-17 06:31N 43°26' E 004°53'0 0.0
2014-Aug-17 05:32N 43°26' E 004°53'0 0.0
2014-Aug-17 04:32N 43°26' E 004°53'0 0.0
2014-Aug-17 03:32N 43°26' E 004°53'0 0.0
2014-Aug-17 02:32N 43°26' E 004°53'0 0.0
2014-Aug-17 01:31N 43°26' E 004°53'0 0.0
2014-Aug-17 00:32N 43°26' E 004°53'0 0.0
2014-Aug-16 23:31N 43°26' E 004°53'0 0.0
2014-Aug-16 22:32N 43°26' E 004°53'0 0.0
2014-Aug-16 21:31N 43°26' E 004°53'0 0.0
2014-Aug-16 20:31N 43°26' E 004°53'0 0.0
2014-Aug-16 19:32N 43°26' E 004°53'0 0.0
2014-Aug-16 18:32N 43°26' E 004°53'0 0.0
2014-Aug-16 17:31N 43°26' E 004°53'0 0.0
2014-Aug-16 16:32N 43°26' E 004°53'0 0.0
2014-Aug-16 15:32N 43°26' E 004°53'0 0.0
2014-Aug-16 14:31N 43°26' E 004°53'0 0.0
2014-Aug-16 13:32N 43°26' E 004°53'0 0.0
2014-Aug-16 12:32N 43°26' E 004°53'  
Track history (hours):
 
Tides and Currents Weather Stations Pressure Air Temp Water Temp Dewpoint Dewpoint Depression Visibility Wind Speed Wind Dir Waves Ship Positions

Cape Magnolia

Last reported at 2014-Aug-26 12:21 UTC. Time now 2014-Aug-31 06:32 UTC.
Position N 33°45' W 024°13'.

Length 292 m; draft 10.4 m.

Type: Ship. MMSI: 357427000.

Date/timePositionNaut miles runAvg speedWind from/ knotsBaromVisibWave heightAir tempDewpointWater temp
2014-Aug-26 12:21N 33°45' W 024°13'911.0
2014-Aug-26 11:32N 33°46' W 024°02'4013.4
2014-Aug-26 08:30N 33°57' W 023°15'  
2014-Aug-23 22:07N 35°42' W 009°57'610.5
2014-Aug-23 21:33N 35°43' W 009°49'1110.8
2014-Aug-23 20:33N 35°43' W 009°36'1210.8
2014-Aug-23 19:28N 35°44' W 009°22'19410.2
2014-Aug-23 00:22N 36°04' W 005°23'4 0.9
2014-Aug-22 20:04N 36°08' W 005°23'0 0.2
2014-Aug-22 19:22N 36°08' W 005°23'0 0.2
2014-Aug-22 18:28N 36°08' W 005°23'0 0.1
2014-Aug-22 17:31N 36°08' W 005°23'0 0.0
2014-Aug-22 16:28N 36°08' W 005°23'0 0.1
2014-Aug-22 15:31N 36°08' W 005°23'0 0.0
2014-Aug-22 14:31N 36°08' W 005°23'0 0.0
2014-Aug-22 12:25N 36°08' W 005°23'0 0.2
2014-Aug-22 11:22N 36°08' W 005°23'0 0.0
2014-Aug-21 21:22N 36°08' W 005°23'1 1.4
2014-Aug-21 20:33N 36°07' W 005°23'6 5.2
2014-Aug-21 19:19N 36°07' W 005°15'5 1.5
2014-Aug-21 16:13N 36°07' W 005°09'17210.8
2014-Aug-21 00:22N 36°42' W 001°40'911.2
2014-Aug-20 23:33N 36°47' W 001°30'1111.2
2014-Aug-20 22:33N 36°53' W 001°19'1111.3
2014-Aug-20 21:32N 37°01' W 001°08'1111.2
2014-Aug-20 20:32N 37°08' W 000°57'1010.1
2014-Aug-20 19:33N 37°12' W 000°46'1110.9
2014-Aug-20 18:33N 37°19' W 000°35'1110.8
2014-Aug-20 17:33N 37°25' W 000°24'1110.6
2014-Aug-20 16:33N 37°32' W 000°14'1110.8
2014-Aug-20 15:33N 37°41' W 000°07'1311.0
2014-Aug-20 14:20N 37°53' E 000°01'1011.2
2014-Aug-20 13:24N 38°02' E 000°07'1011.3
2014-Aug-20 12:31N 38°11' E 000°14'3311.0
2014-Aug-20 09:32N 38°39' E 000°35'3913.1
2014-Aug-20 06:33N 39°12' E 001°01'1111.2
2014-Aug-20 05:33N 39°21' E 001°10'1110.6
2014-Aug-20 04:33N 39°30' E 001°18'1110.9
2014-Aug-20 03:33N 39°38' E 001°27'1110.9
2014-Aug-20 02:33N 39°47' E 001°36'1110.8
2014-Aug-20 01:33N 39°56' E 001°44'1110.8
2014-Aug-20 00:33N 40°04' E 001°52'1111.1
2014-Aug-19 23:33N 40°14' E 001°59'1110.6
2014-Aug-19 22:33N 40°24' E 002°05'1010.0
2014-Aug-19 21:33N 40°30' E 002°16'1111.0
2014-Aug-19 20:33N 40°37' E 002°26'1010.3
2014-Aug-19 19:33N 40°46' E 002°33'1110.7
2014-Aug-19 18:33N 40°54' E 002°42'1110.8
2014-Aug-19 17:33N 41°03' E 002°50'1111.1
2014-Aug-19 16:33N 41°13' E 002°59'1212.2
2014-Aug-19 15:33N 41°22' E 003°09'1212.0
2014-Aug-19 14:34N 41°31' E 003°19'1211.6
2014-Aug-19 13:33N 41°41' E 003°28'1212.1
2014-Aug-19 12:33N 41°50' E 003°38'1212.4
2014-Aug-19 11:33N 42°00' E 003°47'1211.4
2014-Aug-19 10:32N 42°09' E 003°57'1212.2
2014-Aug-19 09:33N 42°19' E 004°07'1211.8
2014-Aug-19 08:32N 42°28' E 004°17'1312.7
2014-Aug-19 07:33N 42°39' E 004°26'1411.5
2014-Aug-19 06:22N 42°49' E 004°38'1111.7
2014-Aug-19 05:24N 42°58' E 004°47'1011.3
2014-Aug-19 04:33N 43°06' E 004°55'1010.3
2014-Aug-19 03:34N 43°16' E 004°60'9 9.3
2014-Aug-19 02:33N 43°24' E 004°54'2 1.7
2014-Aug-19 01:31N 43°26' E 004°53'0 0.0
2014-Aug-19 00:31N 43°26' E 004°53'0 0.0
2014-Aug-18 23:32N 43°26' E 004°53'0 0.0
2014-Aug-18 22:31N 43°26' E 004°53'0 0.0
2014-Aug-18 21:31N 43°26' E 004°53'0 0.0
2014-Aug-18 20:31N 43°26' E 004°53'0 0.0
2014-Aug-18 19:32N 43°26' E 004°53'0 0.0
2014-Aug-18 18:32N 43°26' E 004°53'0 0.0
2014-Aug-18 17:29N 43°26' E 004°53'0 0.0
2014-Aug-18 16:31N 43°26' E 004°53'0 0.0
2014-Aug-18 15:32N 43°26' E 004°53'0 0.0
2014-Aug-18 14:32N 43°26' E 004°53'0 0.0
2014-Aug-18 13:31N 43°26' E 004°53'0 0.0
2014-Aug-18 12:31N 43°26' E 004°53'0 0.0
2014-Aug-18 11:32N 43°26' E 004°53'0 0.0
2014-Aug-18 10:31N 43°26' E 004°53'0 0.0
2014-Aug-18 09:32N 43°26' E 004°53'0 0.0
2014-Aug-18 08:31N 43°26' E 004°53'0 0.0
2014-Aug-18 07:31N 43°26' E 004°53'0 0.0
2014-Aug-18 06:31N 43°26' E 004°53'0 0.0
2014-Aug-18 05:31N 43°26' E 004°53'0 0.0
2014-Aug-18 04:32N 43°26' E 004°53'0 0.0
2014-Aug-18 03:32N 43°26' E 004°53'0 0.0
2014-Aug-18 02:32N 43°26' E 004°53'0 0.0
2014-Aug-18 01:32N 43°26' E 004°53'0 0.0
2014-Aug-18 00:32N 43°26' E 004°53'0 0.0
2014-Aug-17 18:32N 43°26' E 004°53'0 0.0
2014-Aug-17 17:32N 43°26' E 004°53'0 0.0
2014-Aug-17 16:31N 43°26' E 004°53'0 0.0
2014-Aug-17 15:32N 43°26' E 004°53'0 0.0
2014-Aug-17 14:32N 43°26' E 004°53'0 0.0
2014-Aug-17 13:31N 43°26' E 004°53'0 0.0
2014-Aug-17 12:32N 43°26' E 004°53'0 0.0
2014-Aug-17 11:31N 43°26' E 004°53'0 0.0
2014-Aug-17 10:31N 43°26' E 004°53'0 0.0
2014-Aug-17 09:32N 43°26' E 004°53'0 0.0
2014-Aug-17 08:31N 43°26' E 004°53'0 0.0
2014-Aug-17 07:32N 43°26' E 004°53'0 0.0
2014-Aug-17 06:31N 43°26' E 004°53'0 0.0
2014-Aug-17 05:32N 43°26' E 004°53'0 0.0
2014-Aug-17 04:32N 43°26' E 004°53'0 0.0
2014-Aug-17 03:32N 43°26' E 004°53'0 0.0
2014-Aug-17 02:32N 43°26' E 004°53'0 0.0
2014-Aug-17 01:31N 43°26' E 004°53'0 0.0
2014-Aug-17 00:32N 43°26' E 004°53'0 0.0
2014-Aug-16 23:31N 43°26' E 004°53'0 0.0
2014-Aug-16 22:32N 43°26' E 004°53'0 0.0
2014-Aug-16 21:31N 43°26' E 004°53'0 0.0
2014-Aug-16 20:31N 43°26' E 004°53'0 0.0
2014-Aug-16 19:32N 43°26' E 004°53'0 0.0
2014-Aug-16 18:32N 43°26' E 004°53'0 0.0
2014-Aug-16 17:31N 43°26' E 004°53'0 0.0
2014-Aug-16 16:32N 43°26' E 004°53'0 0.0
2014-Aug-16 15:32N 43°26' E 004°53'0 0.0
2014-Aug-16 14:31N 43°26' E 004°53'0 0.0
2014-Aug-16 13:32N 43°26' E 004°53'0 0.0
2014-Aug-16 12:32N 43°26' E 004°53'  

Dump ship's entire track history